sensor_id;sensor_type;location;lat;lon;timestamp;temperature;humidity
44359;DHT22;30077;52.474;13.326;2023-07-31T00:00:13;16.00;99.90
44359;DHT22;30077;52.474;13.326;2023-07-31T00:05:13;16.00;99.90
44359;DHT22;30077;52.474;13.326;2023-07-31T00:10:16;15.80;99.90
44359;DHT22;30077;52.474;13.326;2023-07-31T00:15:17;15.80;99.90
44359;DHT22;30077;52.474;13.326;2023-07-31T00:20:19;15.90;99.90
44359;DHT22;30077;52.474;13.326;2023-07-31T00:25:20;15.90;99.90
44359;DHT22;30077;52.474;13.326;2023-07-31T00:30:20;16.00;99.90
44359;DHT22;30077;52.474;13.326;2023-07-31T00:35:22;16.00;99.90
44359;DHT22;30077;52.474;13.326;2023-07-31T00:40:23;16.00;99.90
44359;DHT22;30077;52.474;13.326;2023-07-31T00:45:24;16.00;99.90
44359;DHT22;30077;52.474;13.326;2023-07-31T00:50:25;16.20;99.90
44359;DHT22;30077;52.474;13.326;2023-07-31T00:55:26;16.10;99.90
44359;DHT22;30077;52.474;13.326;2023-07-31T01:00:27;16.10;99.90
44359;DHT22;30077;52.474;13.326;2023-07-31T01:05:46;16.10;99.90
44359;DHT22;30077;52.474;13.326;2023-07-31T01:11:06;16.30;99.90
44359;DHT22;30077;52.474;13.326;2023-07-31T01:16:10;16.10;99.90
44359;DHT22;30077;52.474;13.326;2023-07-31T01:26:34;16.30;99.90
44359;DHT22;30077;52.474;13.326;2023-07-31T01:31:37;16.30;99.90
44359;DHT22;30077;52.474;13.326;2023-07-31T01:36:38;16.40;99.90
44359;DHT22;30077;52.474;13.326;2023-07-31T01:41:39;16.40;99.90
44359;DHT22;30077;52.474;13.326;2023-07-31T01:46:40;16.30;99.90
44359;DHT22;30077;52.474;13.326;2023-07-31T01:51:40;16.30;99.90
44359;DHT22;30077;52.474;13.326;2023-07-31T01:56:41;16.30;99.90
44359;DHT22;30077;52.474;13.326;2023-07-31T02:01:42;16.20;99.90
44359;DHT22;30077;52.474;13.326;2023-07-31T02:06:45;16.20;99.90
44359;DHT22;30077;52.474;13.326;2023-07-31T02:19:12;16.30;99.90
44359;DHT22;30077;52.474;13.326;2023-07-31T02:24:13;16.30;99.90
44359;DHT22;30077;52.474;13.326;2023-07-31T02:29:13;16.30;99.90
44359;DHT22;30077;52.474;13.326;2023-07-31T02:34:14;16.30;99.90
44359;DHT22;30077;52.474;13.326;2023-07-31T02:39:15;16.30;99.90
44359;DHT22;30077;52.474;13.326;2023-07-31T02:44:15;16.30;99.90
44359;DHT22;30077;52.474;13.326;2023-07-31T02:49:16;16.30;99.90
44359;DHT22;30077;52.474;13.326;2023-07-31T02:54:17;16.30;99.90
44359;DHT22;30077;52.474;13.326;2023-07-31T02:59:17;16.30;99.90
44359;DHT22;30077;52.474;13.326;2023-07-31T03:04:19;16.20;99.90
44359;DHT22;30077;52.474;13.326;2023-07-31T03:09:19;16.20;99.90
44359;DHT22;30077;52.474;13.326;2023-07-31T03:14:20;16.20;99.90
44359;DHT22;30077;52.474;13.326;2023-07-31T03:19:21;16.30;99.90
44359;DHT22;30077;52.474;13.326;2023-07-31T03:24:21;16.30;99.90
44359;DHT22;30077;52.474;13.326;2023-07-31T03:29:22;16.30;99.90
44359;DHT22;30077;52.474;13.326;2023-07-31T03:34:23;16.30;99.90
44359;DHT22;30077;52.474;13.326;2023-07-31T03:39:23;16.40;99.90
44359;DHT22;30077;52.474;13.326;2023-07-31T03:44:24;16.30;99.90
44359;DHT22;30077;52.474;13.326;2023-07-31T03:49:25;16.30;99.90
44359;DHT22;30077;52.474;13.326;2023-07-31T03:54:25;16.30;99.90
44359;DHT22;30077;52.474;13.326;2023-07-31T03:59:29;16.40;99.90
44359;DHT22;30077;52.474;13.326;2023-07-31T04:04:30;16.30;99.90
44359;DHT22;30077;52.474;13.326;2023-07-31T04:09:30;16.40;99.90
44359;DHT22;30077;52.474;13.326;2023-07-31T04:14:31;16.40;99.90
44359;DHT22;30077;52.474;13.326;2023-07-31T04:19:32;16.50;99.90
44359;DHT22;30077;52.474;13.326;2023-07-31T04:24:32;16.50;99.90
44359;DHT22;30077;52.474;13.326;2023-07-31T04:29:33;16.50;99.90
44359;DHT22;30077;52.474;13.326;2023-07-31T04:34:34;16.60;99.90
44359;DHT22;30077;52.474;13.326;2023-07-31T04:39:35;16.50;99.90
44359;DHT22;30077;52.474;13.326;2023-07-31T04:44:36;16.60;99.90
44359;DHT22;30077;52.474;13.326;2023-07-31T04:49:36;16.70;99.90
44359;DHT22;30077;52.474;13.326;2023-07-31T04:54:37;16.70;99.90
44359;DHT22;30077;52.474;13.326;2023-07-31T04:59:38;16.60;99.90
44359;DHT22;30077;52.474;13.326;2023-07-31T05:04:39;16.70;99.90
44359;DHT22;30077;52.474;13.326;2023-07-31T05:27:15;17.30;99.90
44359;DHT22;30077;52.474;13.326;2023-07-31T05:32:18;17.40;99.90
44359;DHT22;30077;52.474;13.326;2023-07-31T05:37:19;17.40;99.90
44359;DHT22;30077;52.474;13.326;2023-07-31T05:42:22;17.40;99.90
44359;DHT22;30077;52.474;13.326;2023-07-31T05:47:23;17.40;99.90
44359;DHT22;30077;52.474;13.326;2023-07-31T05:52:24;17.60;99.90
44359;DHT22;30077;52.474;13.326;2023-07-31T05:57:25;17.60;99.90
44359;DHT22;30077;52.474;13.326;2023-07-31T06:02:26;17.80;99.90
44359;DHT22;30077;52.474;13.326;2023-07-31T06:07:26;17.80;99.90
44359;DHT22;30077;52.474;13.326;2023-07-31T06:12:27;17.80;99.90
44359;DHT22;30077;52.474;13.326;2023-07-31T06:17:28;17.80;99.90
44359;DHT22;30077;52.474;13.326;2023-07-31T06:22:30;17.90;99.90
44359;DHT22;30077;52.474;13.326;2023-07-31T06:27:30;18.10;99.90
44359;DHT22;30077;52.474;13.326;2023-07-31T06:32:35;18.10;99.90
44359;DHT22;30077;52.474;13.326;2023-07-31T06:37:38;18.40;99.90
44359;DHT22;30077;52.474;13.326;2023-07-31T06:42:40;18.60;99.90
44359;DHT22;30077;52.474;13.326;2023-07-31T06:47:42;18.60;99.90
44359;DHT22;30077;52.474;13.326;2023-07-31T06:52:43;18.80;99.90
44359;DHT22;30077;52.474;13.326;2023-07-31T06:57:44;18.40;99.90
44359;DHT22;30077;52.474;13.326;2023-07-31T07:02:49;18.90;99.90
44359;DHT22;30077;52.474;13.326;2023-07-31T07:07:50;18.10;99.90
44359;DHT22;30077;52.474;13.326;2023-07-31T07:29:38;18.20;99.90
44359;DHT22;30077;52.474;13.326;2023-07-31T07:34:39;18.50;99.90
44359;DHT22;30077;52.474;13.326;2023-07-31T07:39:41;18.90;99.90
44359;DHT22;30077;52.474;13.326;2023-07-31T07:44:42;19.30;99.90
44359;DHT22;30077;52.474;13.326;2023-07-31T07:49:42;19.80;99.90
44359;DHT22;30077;52.474;13.326;2023-07-31T07:54:43;19.90;99.90
44359;DHT22;30077;52.474;13.326;2023-07-31T07:59:44;19.90;99.90
44359;DHT22;30077;52.474;13.326;2023-07-31T08:04:45;19.40;99.90
44359;DHT22;30077;52.474;13.326;2023-07-31T08:09:46;19.30;99.90
44359;DHT22;30077;52.474;13.326;2023-07-31T08:14:47;19.20;99.90
44359;DHT22;30077;52.474;13.326;2023-07-31T08:19:48;19.50;99.90
44359;DHT22;30077;52.474;13.326;2023-07-31T08:24:49;19.50;99.90
44359;DHT22;30077;52.474;13.326;2023-07-31T08:29:52;19.70;99.90
44359;DHT22;30077;52.474;13.326;2023-07-31T08:34:52;20.00;99.90
44359;DHT22;30077;52.474;13.326;2023-07-31T08:39:53;20.40;99.90
44359;DHT22;30077;52.474;13.326;2023-07-31T08:45:09;19.90;99.90
44359;DHT22;30077;52.474;13.326;2023-07-31T08:50:17;19.90;99.90
44359;DHT22;30077;52.474;13.326;2023-07-31T08:55:20;20.00;99.90
44359;DHT22;30077;52.474;13.326;2023-07-31T09:00:31;20.00;99.90
44359;DHT22;30077;52.474;13.326;2023-07-31T09:06:05;20.10;99.90
44359;DHT22;30077;52.474;13.326;2023-07-31T09:11:07;20.60;99.90
44359;DHT22;30077;52.474;13.326;2023-07-31T09:16:08;20.70;99.90
44359;DHT22;30077;52.474;13.326;2023-07-31T09:21:11;21.20;99.90
44359;DHT22;30077;52.474;13.326;2023-07-31T09:26:34;21.00;99.90
44359;DHT22;30077;52.474;13.326;2023-07-31T09:31:45;20.30;99.90
44359;DHT22;30077;52.474;13.326;2023-07-31T09:36:48;19.80;99.90
44359;DHT22;30077;52.474;13.326;2023-07-31T09:41:56;19.70;99.90
44359;DHT22;30077;52.474;13.326;2023-07-31T09:46:57;19.50;99.90
44359;DHT22;30077;52.474;13.326;2023-07-31T09:51:57;19.60;99.90
44359;DHT22;30077;52.474;13.326;2023-07-31T09:57:03;19.60;99.90
44359;DHT22;30077;52.474;13.326;2023-07-31T10:02:04;19.80;99.90
44359;DHT22;30077;52.474;13.326;2023-07-31T10:07:08;20.00;99.90
44359;DHT22;30077;52.474;13.326;2023-07-31T10:12:10;20.50;99.90
44359;DHT22;30077;52.474;13.326;2023-07-31T10:17:13;21.10;99.90
44359;DHT22;30077;52.474;13.326;2023-07-31T10:22:16;20.90;99.90
44359;DHT22;30077;52.474;13.326;2023-07-31T10:27:19;20.60;99.90
44359;DHT22;30077;52.474;13.326;2023-07-31T10:32:20;20.60;99.90
44359;DHT22;30077;52.474;13.326;2023-07-31T10:37:30;21.30;99.90
44359;DHT22;30077;52.474;13.326;2023-07-31T10:42:38;22.10;99.90
44359;DHT22;30077;52.474;13.326;2023-07-31T10:47:47;22.60;99.90
44359;DHT22;30077;52.474;13.326;2023-07-31T10:52:52;23.30;99.90
44359;DHT22;30077;52.474;13.326;2023-07-31T10:57:56;23.40;99.90
44359;DHT22;30077;52.474;13.326;2023-07-31T11:03:06;23.40;99.90
44359;DHT22;30077;52.474;13.326;2023-07-31T11:08:16;23.50;99.90
44359;DHT22;30077;52.474;13.326;2023-07-31T11:13:19;23.40;99.90
44359;DHT22;30077;52.474;13.326;2023-07-31T11:18:19;23.00;99.90
44359;DHT22;30077;52.474;13.326;2023-07-31T11:23:22;23.00;99.90
44359;DHT22;30077;52.474;13.326;2023-07-31T11:28:23;23.10;99.90
44359;DHT22;30077;52.474;13.326;2023-07-31T11:33:25;22.80;99.90
44359;DHT22;30077;52.474;13.326;2023-07-31T11:38:29;23.10;99.90
44359;DHT22;30077;52.474;13.326;2023-07-31T11:43:33;23.20;99.90
44359;DHT22;30077;52.474;13.326;2023-07-31T11:48:37;22.90;99.90
44359;DHT22;30077;52.474;13.326;2023-07-31T11:53:48;22.60;99.90
44359;DHT22;30077;52.474;13.326;2023-07-31T11:58:59;22.10;99.90
44359;DHT22;30077;52.474;13.326;2023-07-31T12:04:00;21.90;99.90
44359;DHT22;30077;52.474;13.326;2023-07-31T12:09:04;21.80;99.90
44359;DHT22;30077;52.474;13.326;2023-07-31T12:14:06;22.30;99.90
44359;DHT22;30077;52.474;13.326;2023-07-31T12:19:07;22.40;99.90
44359;DHT22;30077;52.474;13.326;2023-07-31T12:24:07;22.40;99.90
44359;DHT22;30077;52.474;13.326;2023-07-31T12:29:08;22.10;99.90
44359;DHT22;30077;52.474;13.326;2023-07-31T12:34:17;22.40;99.90
44359;DHT22;30077;52.474;13.326;2023-07-31T12:39:19;23.10;99.90
44359;DHT22;30077;52.474;13.326;2023-07-31T12:44:20;23.40;99.90
44359;DHT22;30077;52.474;13.326;2023-07-31T12:49:21;23.70;99.90
44359;DHT22;30077;52.474;13.326;2023-07-31T12:54:22;23.70;99.90
44359;DHT22;30077;52.474;13.326;2023-07-31T12:59:22;23.40;99.90
44359;DHT22;30077;52.474;13.326;2023-07-31T13:04:23;22.90;99.90
44359;DHT22;30077;52.474;13.326;2023-07-31T13:09:24;22.90;99.90
44359;DHT22;30077;52.474;13.326;2023-07-31T13:14:25;23.00;99.90
44359;DHT22;30077;52.474;13.326;2023-07-31T13:19:29;23.30;99.90
44359;DHT22;30077;52.474;13.326;2023-07-31T13:24:29;23.20;99.90
44359;DHT22;30077;52.474;13.326;2023-07-31T13:29:30;23.20;99.90
44359;DHT22;30077;52.474;13.326;2023-07-31T13:34:32;23.30;99.90
44359;DHT22;30077;52.474;13.326;2023-07-31T13:39:33;23.90;99.90
44359;DHT22;30077;52.474;13.326;2023-07-31T13:44:35;24.30;99.90
44359;DHT22;30077;52.474;13.326;2023-07-31T13:49:36;24.60;99.90
44359;DHT22;30077;52.474;13.326;2023-07-31T13:54:37;24.70;99.90
44359;DHT22;30077;52.474;13.326;2023-07-31T13:59:38;24.70;99.90
44359;DHT22;30077;52.474;13.326;2023-07-31T14:04:38;24.30;99.90
44359;DHT22;30077;52.474;13.326;2023-07-31T14:09:39;23.80;99.90
44359;DHT22;30077;52.474;13.326;2023-07-31T14:14:40;24.10;99.90
44359;DHT22;30077;52.474;13.326;2023-07-31T14:19:41;24.10;99.90
44359;DHT22;30077;52.474;13.326;2023-07-31T14:24:41;23.80;99.90
44359;DHT22;30077;52.474;13.326;2023-07-31T14:29:42;23.60;99.90
44359;DHT22;30077;52.474;13.326;2023-07-31T14:34:42;23.60;99.90
44359;DHT22;30077;52.474;13.326;2023-07-31T14:39:43;23.80;99.90
44359;DHT22;30077;52.474;13.326;2023-07-31T14:44:44;23.70;99.90
44359;DHT22;30077;52.474;13.326;2023-07-31T14:49:47;23.50;99.90
44359;DHT22;30077;52.474;13.326;2023-07-31T14:54:48;23.30;99.90
44359;DHT22;30077;52.474;13.326;2023-07-31T14:59:48;22.90;99.90
44359;DHT22;30077;52.474;13.326;2023-07-31T15:04:49;22.60;99.90
44359;DHT22;30077;52.474;13.326;2023-07-31T15:09:50;22.40;99.90
44359;DHT22;30077;52.474;13.326;2023-07-31T15:14:50;22.30;99.90
44359;DHT22;30077;52.474;13.326;2023-07-31T15:19:52;22.20;99.90
44359;DHT22;30077;52.474;13.326;2023-07-31T15:24:53;22.30;99.90
44359;DHT22;30077;52.474;13.326;2023-07-31T15:29:53;22.50;99.90
44359;DHT22;30077;52.474;13.326;2023-07-31T15:34:57;22.20;99.90
44359;DHT22;30077;52.474;13.326;2023-07-31T15:39:57;22.10;99.90
44359;DHT22;30077;52.474;13.326;2023-07-31T15:44:59;22.10;99.90
44359;DHT22;30077;52.474;13.326;2023-07-31T15:50:00;22.30;99.90
44359;DHT22;30077;52.474;13.326;2023-07-31T15:55:00;22.10;99.90
44359;DHT22;30077;52.474;13.326;2023-07-31T16:00:02;22.00;99.90
44359;DHT22;30077;52.474;13.326;2023-07-31T16:05:04;22.10;99.90
44359;DHT22;30077;52.474;13.326;2023-07-31T16:10:05;22.10;99.90
44359;DHT22;30077;52.474;13.326;2023-07-31T16:15:07;22.00;99.90
44359;DHT22;30077;52.474;13.326;2023-07-31T16:20:09;21.80;99.90
44359;DHT22;30077;52.474;13.326;2023-07-31T16:25:11;21.70;99.90
44359;DHT22;30077;52.474;13.326;2023-07-31T16:30:13;21.50;99.90
44359;DHT22;30077;52.474;13.326;2023-07-31T16:35:13;21.30;99.90
44359;DHT22;30077;52.474;13.326;2023-07-31T16:40:14;21.30;99.90
44359;DHT22;30077;52.474;13.326;2023-07-31T16:45:17;21.40;99.90
44359;DHT22;30077;52.474;13.326;2023-07-31T16:50:18;21.50;99.90
44359;DHT22;30077;52.474;13.326;2023-07-31T16:55:22;21.60;99.90
44359;DHT22;30077;52.474;13.326;2023-07-31T17:00:23;21.60;99.90
44359;DHT22;30077;52.474;13.326;2023-07-31T17:05:23;21.80;99.90
44359;DHT22;30077;52.474;13.326;2023-07-31T17:10:25;21.70;99.90
44359;DHT22;30077;52.474;13.326;2023-07-31T17:15:26;21.60;99.90
44359;DHT22;30077;52.474;13.326;2023-07-31T17:20:30;21.50;99.90
44359;DHT22;30077;52.474;13.326;2023-07-31T17:25:32;21.20;99.90
44359;DHT22;30077;52.474;13.326;2023-07-31T17:30:33;21.10;99.90
44359;DHT22;30077;52.474;13.326;2023-07-31T17:35:34;20.90;99.90
44359;DHT22;30077;52.474;13.326;2023-07-31T17:40:34;20.60;99.90
44359;DHT22;30077;52.474;13.326;2023-07-31T17:45:35;20.40;99.90
44359;DHT22;30077;52.474;13.326;2023-07-31T17:50:36;20.40;99.90
44359;DHT22;30077;52.474;13.326;2023-07-31T17:55:37;20.40;99.90
44359;DHT22;30077;52.474;13.326;2023-07-31T18:00:38;20.50;99.90
44359;DHT22;30077;52.474;13.326;2023-07-31T18:05:40;20.50;99.90
44359;DHT22;30077;52.474;13.326;2023-07-31T18:10:44;20.40;99.90
44359;DHT22;30077;52.474;13.326;2023-07-31T18:15:46;20.30;99.90
44359;DHT22;30077;52.474;13.326;2023-07-31T18:20:47;20.20;99.90
44359;DHT22;30077;52.474;13.326;2023-07-31T18:25:49;20.10;99.90
44359;DHT22;30077;52.474;13.326;2023-07-31T18:30:59;20.00;99.90
44359;DHT22;30077;52.474;13.326;2023-07-31T18:36:02;19.90;99.90
44359;DHT22;30077;52.474;13.326;2023-07-31T18:41:07;19.90;99.90
44359;DHT22;30077;52.474;13.326;2023-07-31T18:46:07;19.90;99.90
44359;DHT22;30077;52.474;13.326;2023-07-31T18:51:09;19.80;99.90
44359;DHT22;30077;52.474;13.326;2023-07-31T18:56:10;19.80;99.90
44359;DHT22;30077;52.474;13.326;2023-07-31T19:01:11;19.80;99.90
44359;DHT22;30077;52.474;13.326;2023-07-31T19:06:11;19.70;99.90
44359;DHT22;30077;52.474;13.326;2023-07-31T19:11:12;19.50;99.90
44359;DHT22;30077;52.474;13.326;2023-07-31T19:16:13;19.50;99.90
44359;DHT22;30077;52.474;13.326;2023-07-31T19:21:15;19.40;99.90
44359;DHT22;30077;52.474;13.326;2023-07-31T19:26:17;19.40;99.90
44359;DHT22;30077;52.474;13.326;2023-07-31T19:31:18;19.40;99.90
44359;DHT22;30077;52.474;13.326;2023-07-31T19:36:19;19.30;99.90
44359;DHT22;30077;52.474;13.326;2023-07-31T19:41:20;19.30;99.90
44359;DHT22;30077;52.474;13.326;2023-07-31T19:46:22;19.30;99.90
44359;DHT22;30077;52.474;13.326;2023-07-31T19:51:23;19.30;99.90
44359;DHT22;30077;52.474;13.326;2023-07-31T19:56:24;19.30;99.90
44359;DHT22;30077;52.474;13.326;2023-07-31T20:01:24;19.30;99.90
44359;DHT22;30077;52.474;13.326;2023-07-31T20:06:27;19.40;99.90
44359;DHT22;30077;52.474;13.326;2023-07-31T20:11:27;19.30;99.90
44359;DHT22;30077;52.474;13.326;2023-07-31T20:16:28;19.30;99.90
44359;DHT22;30077;52.474;13.326;2023-07-31T20:21:30;19.30;99.90
44359;DHT22;30077;52.474;13.326;2023-07-31T20:26:30;19.20;99.90
44359;DHT22;30077;52.474;13.326;2023-07-31T20:31:32;19.20;99.90
44359;DHT22;30077;52.474;13.326;2023-07-31T20:36:34;19.20;99.90
44359;DHT22;30077;52.474;13.326;2023-07-31T20:41:39;19.20;99.90
44359;DHT22;30077;52.474;13.326;2023-07-31T20:46:40;19.10;99.90
44359;DHT22;30077;52.474;13.326;2023-07-31T20:51:41;19.00;99.90
44359;DHT22;30077;52.474;13.326;2023-07-31T20:56:44;19.00;99.90
44359;DHT22;30077;52.474;13.326;2023-07-31T21:01:45;19.00;99.90
44359;DHT22;30077;52.474;13.326;2023-07-31T21:06:46;18.90;99.90
44359;DHT22;30077;52.474;13.326;2023-07-31T21:11:46;18.90;99.90
44359;DHT22;30077;52.474;13.326;2023-07-31T21:16:50;18.90;99.90
44359;DHT22;30077;52.474;13.326;2023-07-31T21:21:51;18.90;99.90
44359;DHT22;30077;52.474;13.326;2023-07-31T21:26:52;18.90;99.90
44359;DHT22;30077;52.474;13.326;2023-07-31T21:31:53;19.00;99.90
44359;DHT22;30077;52.474;13.326;2023-07-31T21:36:55;18.90;99.90
44359;DHT22;30077;52.474;13.326;2023-07-31T21:41:57;18.90;99.90
44359;DHT22;30077;52.474;13.326;2023-07-31T21:46:57;18.90;99.90
44359;DHT22;30077;52.474;13.326;2023-07-31T21:51:58;18.90;99.90
44359;DHT22;30077;52.474;13.326;2023-07-31T21:56:59;18.90;99.90
44359;DHT22;30077;52.474;13.326;2023-07-31T22:02:00;18.80;99.90
44359;DHT22;30077;52.474;13.326;2023-07-31T22:07:01;19.80;99.90
44359;DHT22;30077;52.474;13.326;2023-07-31T22:12:02;18.90;99.90
44359;DHT22;30077;52.474;13.326;2023-07-31T22:17:03;18.90;99.90
44359;DHT22;30077;52.474;13.326;2023-07-31T22:22:04;18.90;99.90
44359;DHT22;30077;52.474;13.326;2023-07-31T22:27:07;19.00;99.90
44359;DHT22;30077;52.474;13.326;2023-07-31T22:32:08;19.00;99.90
44359;DHT22;30077;52.474;13.326;2023-07-31T22:37:09;19.00;99.90
44359;DHT22;30077;52.474;13.326;2023-07-31T22:42:10;19.10;99.90
44359;DHT22;30077;52.474;13.326;2023-07-31T22:47:11;19.20;99.90
44359;DHT22;30077;52.474;13.326;2023-07-31T22:52:12;19.20;99.90
44359;DHT22;30077;52.474;13.326;2023-07-31T22:57:12;19.20;99.90
44359;DHT22;30077;52.474;13.326;2023-07-31T23:02:13;19.30;99.90
44359;DHT22;30077;52.474;13.326;2023-07-31T23:07:14;19.20;99.90
44359;DHT22;30077;52.474;13.326;2023-07-31T23:12:15;19.20;99.90
44359;DHT22;30077;52.474;13.326;2023-07-31T23:17:15;19.20;99.90
44359;DHT22;30077;52.474;13.326;2023-07-31T23:22:16;19.20;99.90
44359;DHT22;30077;52.474;13.326;2023-07-31T23:27:17;19.20;99.90
44359;DHT22;30077;52.474;13.326;2023-07-31T23:32:17;19.20;99.90
44359;DHT22;30077;52.474;13.326;2023-07-31T23:37:18;19.10;99.90
44359;DHT22;30077;52.474;13.326;2023-07-31T23:42:18;19.10;99.90
44359;DHT22;30077;52.474;13.326;2023-07-31T23:47:19;19.00;99.90
44359;DHT22;30077;52.474;13.326;2023-07-31T23:52:20;18.90;99.90
44359;DHT22;30077;52.474;13.326;2023-07-31T23:57:20;18.80;99.90
